Time;durP1;ratioP1;P1;durP2;ratioP2;P2;SDS_P1;SDS_P2;PMS_P1;PMS_P2;Temp;Humidity;BMP_temperature;BMP_pressure;BME280_temperature;BME280_humidity;BME280_pressure;Samples;Min_cycle;Max_cycle;Signal;HPM_P1;HPM_P2
2023/08/29 00:01:44;;;;;;;3.10;0.77;;;;;;;;;;4955267;28;20214;-60
2023/08/29 00:04:11;;;;;;;1.75;0.80;;;;;;;;;;4955533;28;20258;-60
2023/08/29 00:06:38;;;;;;;1.25;0.85;;;;;;;;;;4955478;28;20238;-59
2023/08/29 00:09:05;;;;;;;1.77;1.02;;;;;;;;;;4955308;28;20230;-60
2023/08/29 00:11:33;;;;;;;1.38;0.82;;;;;;;;;;4955255;28;20250;-60
2023/08/29 00:14:00;;;;;;;1.17;0.70;;;;;;;;;;4955472;28;20298;-60
2023/08/29 00:16:27;;;;;;;2.35;1.00;;;;;;;;;;4955442;28;20203;-60
2023/08/29 00:18:54;;;;;;;1.52;0.80;;;;;;;;;;4955586;28;20254;-60
2023/08/29 00:21:22;;;;;;;1.05;0.73;;;;;;;;;;4958788;28;20284;-60
2023/08/29 00:23:49;;;;;;;1.10;0.70;;;;;;;;;;4959150;28;20771;-60
2023/08/29 00:26:16;;;;;;;1.13;0.75;;;;;;;;;;4958951;28;20234;-60
2023/08/29 00:28:44;;;;;;;1.25;0.80;;;;;;;;;;4959014;28;20213;-60
2023/08/29 00:31:11;;;;;;;2.15;0.90;;;;;;;;;;4958080;29;20215;-58
2023/08/29 00:33:38;;;;;;;1.58;0.90;;;;;;;;;;4957663;29;20661;-60
2023/08/29 00:36:05;;;;;;;0.93;0.77;;;;;;;;;;4957674;29;20199;-59
2023/08/29 00:38:33;;;;;;;1.38;0.90;;;;;;;;;;4957895;29;20210;-59
2023/08/29 00:41:00;;;;;;;1.45;0.90;;;;;;;;;;4973663;28;20240;-59
2023/08/29 00:43:29;;;;;;;1.35;0.88;;;;;;;;;;4958629;28;20633;-59
2023/08/29 00:45:57;;;;;;;4.15;0.90;;;;;;;;;;4958838;29;20207;-60
2023/08/29 00:48:25;;;;;;;0.95;0.80;;;;;;;;;;4957791;28;20310;-60
2023/08/29 00:50:54;;;;;;;4.13;0.80;;;;;;;;;;4957632;28;20211;-58
2023/08/29 00:53:22;;;;;;;1.85;0.77;;;;;;;;;;4958685;28;20223;-60
2023/08/29 00:55:50;;;;;;;1.38;0.80;;;;;;;;;;4958392;28;20207;-60
2023/08/29 00:58:17;;;;;;;2.60;0.98;;;;;;;;;;4957253;29;20672;-59
2023/08/29 01:00:45;;;;;;;1.83;0.90;;;;;;;;;;4957311;29;20208;-60
2023/08/29 01:03:13;;;;;;;1.10;0.90;;;;;;;;;;4958369;28;20214;-60
2023/08/29 01:05:40;;;;;;;6.10;0.85;;;;;;;;;;4973116;28;20738;-60
2023/08/29 01:08:07;;;;;;;1.02;0.70;;;;;;;;;;4973045;28;20576;-58
2023/08/29 01:11:00;;;;;;;3.30;0.82;;;;;;;;;;4957106;29;20274;-59
2023/08/29 01:13:33;;;;;;;0.95;0.80;;;;;;;;;;4922105;28;20200;-60
2023/08/29 01:16:03;;;;;;;1.10;0.70;;;;;;;;;;4958109;28;20563;-59
2023/08/29 01:18:31;;;;;;;2.05;0.98;;;;;;;;;;4971981;28;20203;-59
2023/08/29 01:21:05;;;;;;;0.95;0.73;;;;;;;;;;4956913;29;20199;-60
2023/08/29 01:24:04;;;;;;;1.27;1.00;;;;;;;;;;4973156;28;20230;-59
2023/08/29 01:26:32;;;;;;;1.63;1.00;;;;;;;;;;4886431;29;20240;-60
2023/08/29 01:29:01;;;;;;;1.48;0.93;;;;;;;;;;4886685;29;20208;-60
2023/08/29 01:31:29;;;;;;;1.75;0.80;;;;;;;;;;4917713;29;20212;-59
2023/08/29 01:33:58;;;;;;;1.23;0.90;;;;;;;;;;4917633;29;20204;-60
2023/08/29 01:36:41;;;;;;;5.35;1.05;;;;;;;;;;4917495;29;20215;-59
2023/08/29 01:39:08;;;;;;;1.58;0.95;;;;;;;;;;4886660;29;20268;-60
2023/08/29 01:41:36;;;;;;;4.53;0.88;;;;;;;;;;4901663;29;20233;-57
2023/08/29 01:44:04;;;;;;;1.77;1.10;;;;;;;;;;4901759;29;20209;-59
2023/08/29 01:46:33;;;;;;;5.95;1.05;;;;;;;;;;4901780;29;20236;-60
2023/08/29 01:49:03;;;;;;;6.47;1.00;;;;;;;;;;4917369;29;20208;-60
2023/08/29 01:51:30;;;;;;;1.85;1.00;;;;;;;;;;4902122;29;20670;-59
2023/08/29 01:53:58;;;;;;;1.40;1.08;;;;;;;;;;4917411;29;20299;-59
2023/08/29 01:56:28;;;;;;;4.10;0.93;;;;;;;;;;4901683;29;20235;-59
2023/08/29 01:58:56;;;;;;;1.45;0.90;;;;;;;;;;4901412;29;20200;-58
2023/08/29 02:01:23;;;;;;;3.45;1.15;;;;;;;;;;4901619;29;20216;-60
2023/08/29 02:03:51;;;;;;;2.15;1.02;;;;;;;;;;4946251;29;20203;-59
2023/08/29 02:06:19;;;;;;;1.42;0.90;;;;;;;;;;4956337;29;20199;-60
2023/08/29 02:08:47;;;;;;;1.33;0.93;;;;;;;;;;4957243;28;20207;-59
2023/08/29 02:11:14;;;;;;;3.13;1.40;;;;;;;;;;4957446;28;20211;-58
2023/08/29 02:13:41;;;;;;;1.55;1.08;;;;;;;;;;4957335;29;20258;-57
2023/08/29 02:16:08;;;;;;;1.75;1.20;;;;;;;;;;4957125;28;20199;-59
2023/08/29 02:18:35;;;;;;;2.15;1.00;;;;;;;;;;4972062;28;20294;-60
2023/08/29 02:21:03;;;;;;;1.75;1.13;;;;;;;;;;4955762;29;20562;-58
2023/08/29 02:23:31;;;;;;;1.73;1.15;;;;;;;;;;4956878;28;20222;-58
2023/08/29 02:26:04;;;;;;;1.30;1.05;;;;;;;;;;4957168;28;20284;-59
2023/08/29 02:28:36;;;;;;;5.68;1.42;;;;;;;;;;4955714;28;20257;-58
2023/08/29 02:31:08;;;;;;;2.00;1.38;;;;;;;;;;4956044;28;20200;-59
2023/08/29 02:33:37;;;;;;;3.40;1.38;;;;;;;;;;4956555;28;20195;-58
2023/08/29 02:36:05;;;;;;;4.30;1.45;;;;;;;;;;4956194;28;20208;-60
2023/08/29 02:38:33;;;;;;;2.60;1.40;;;;;;;;;;4956827;28;20549;-61
2023/08/29 02:41:00;;;;;;;6.05;1.20;;;;;;;;;;4955515;29;20259;-60
2023/08/29 02:43:28;;;;;;;2.80;1.50;;;;;;;;;;4954367;28;20238;-59
2023/08/29 02:45:55;;;;;;;3.40;1.60;;;;;;;;;;4956520;28;20678;-59
2023/08/29 02:48:23;;;;;;;2.33;1.50;;;;;;;;;;4955194;28;20231;-58
2023/08/29 02:50:51;;;;;;;5.75;1.40;;;;;;;;;;4956573;28;20215;-60
2023/08/29 02:53:19;;;;;;;3.17;1.60;;;;;;;;;;4955170;29;20748;-59
2023/08/29 02:55:51;;;;;;;2.33;1.80;;;;;;;;;;4956325;29;20210;-59
2023/08/29 02:58:18;;;;;;;3.17;1.55;;;;;;;;;;4955551;29;20215;-60
2023/08/29 03:00:47;;;;;;;2.50;1.40;;;;;;;;;;4971159;28;20207;-60
2023/08/29 03:03:16;;;;;;;6.75;1.90;;;;;;;;;;4956532;28;20208;-58
2023/08/29 03:05:56;;;;;;;4.10;1.73;;;;;;;;;;4956223;28;20273;-60
2023/08/29 03:08:23;;;;;;;2.03;1.52;;;;;;;;;;4956076;28;20649;-59
2023/08/29 03:10:51;;;;;;;2.08;1.70;;;;;;;;;;4956110;28;20215;-60
2023/08/29 03:13:18;;;;;;;3.25;1.92;;;;;;;;;;4954492;29;20203;-60
2023/08/29 03:15:47;;;;;;;3.20;1.52;;;;;;;;;;4954541;29;20207;-60
2023/08/29 03:18:14;;;;;;;2.72;1.83;;;;;;;;;;4954769;29;20569;-60
2023/08/29 03:20:42;;;;;;;5.53;1.77;;;;;;;;;;4970627;28;20218;-59
2023/08/29 03:23:10;;;;;;;2.90;1.55;;;;;;;;;;4955706;28;20543;-57
2023/08/29 03:25:38;;;;;;;3.25;1.83;;;;;;;;;;4954407;28;20215;-59
2023/08/29 03:28:05;;;;;;;3.35;1.65;;;;;;;;;;4955383;28;20286;-59
2023/08/29 03:30:33;;;;;;;2.92;1.88;;;;;;;;;;4953098;29;20535;-60
2023/08/29 03:33:01;;;;;;;2.60;1.60;;;;;;;;;;4951898;29;20258;-58
2023/08/29 03:35:28;;;;;;;4.20;1.48;;;;;;;;;;4982378;28;20203;-59
2023/08/29 03:37:55;;;;;;;4.35;1.98;;;;;;;;;;4951899;29;20603;-57
2023/08/29 03:40:24;;;;;;;2.28;1.63;;;;;;;;;;4952552;29;20580;-57
2023/08/29 03:42:51;;;;;;;1.85;1.65;;;;;;;;;;4954157;29;20227;-56
2023/08/29 03:45:18;;;;;;;7.03;2.28;;;;;;;;;;4953585;29;20208;-58
2023/08/29 03:47:45;;;;;;;2.50;1.85;;;;;;;;;;4962492;28;20231;-60
2023/08/29 03:50:13;;;;;;;3.80;1.80;;;;;;;;;;4969761;28;20200;-60
2023/08/29 03:52:40;;;;;;;2.22;1.63;;;;;;;;;;4953864;29;20258;-58
2023/08/29 03:55:09;;;;;;;2.78;1.73;;;;;;;;;;4952607;28;20199;-56
2023/08/29 03:57:36;;;;;;;2.67;2.13;;;;;;;;;;4983465;28;20195;-59
2023/08/29 04:00:08;;;;;;;3.63;1.77;;;;;;;;;;4952504;29;20207;-59
2023/08/29 04:02:39;;;;;;;2.28;1.77;;;;;;;;;;4953359;29;20221;-55
2023/08/29 04:05:14;;;;;;;5.32;2.05;;;;;;;;;;4957283;28;20219;-57
2023/08/29 04:07:42;;;;;;;2.67;1.95;;;;;;;;;;4952770;29;20230;-57
2023/08/29 04:10:11;;;;;;;4.03;1.90;;;;;;;;;;4953305;28;20239;-56
2023/08/29 04:12:38;;;;;;;6.03;2.00;;;;;;;;;;4943503;29;20251;-59
2023/08/29 04:15:06;;;;;;;4.10;2.08;;;;;;;;;;4948499;28;20239;-59
2023/08/29 04:17:34;;;;;;;6.97;2.10;;;;;;;;;;4954087;28;20247;-58
2023/08/29 04:20:04;;;;;;;4.03;2.28;;;;;;;;;;4952857;28;20305;-58
2023/08/29 04:22:31;;;;;;;6.20;2.25;;;;;;;;;;4954462;28;20235;-54
2023/08/29 04:24:59;;;;;;;3.45;2.17;;;;;;;;;;4954199;28;20231;-55
2023/08/29 04:27:26;;;;;;;5.82;2.10;;;;;;;;;;4953146;28;20235;-54
2023/08/29 04:29:53;;;;;;;6.32;2.28;;;;;;;;;;4969106;28;20235;-59
2023/08/29 04:32:20;;;;;;;5.55;2.55;;;;;;;;;;4953007;29;20255;-55
2023/08/29 04:34:48;;;;;;;4.28;2.90;;;;;;;;;;4953972;28;20232;-58
2023/08/29 04:37:15;;;;;;;4.53;2.47;;;;;;;;;;4954337;28;20230;-58
2023/08/29 04:39:44;;;;;;;5.32;2.80;;;;;;;;;;4954211;28;20230;-55
2023/08/29 04:42:11;;;;;;;4.05;2.65;;;;;;;;;;4954219;28;20301;-55
2023/08/29 04:44:38;;;;;;;6.95;4.40;;;;;;;;;;4953974;28;20227;-54
2023/08/29 04:47:05;;;;;;;4.72;3.17;;;;;;;;;;4952465;28;20226;-60
2023/08/29 04:49:34;;;;;;;8.60;3.28;;;;;;;;;;4952088;28;20235;-60
2023/08/29 04:52:01;;;;;;;10.45;3.53;;;;;;;;;;4951549;29;20229;-60
2023/08/29 04:54:29;;;;;;;6.28;3.30;;;;;;;;;;4952355;28;20239;-57
2023/08/29 04:56:56;;;;;;;7.60;3.63;;;;;;;;;;4951538;29;20242;-60
2023/08/29 04:59:24;;;;;;;3.88;3.28;;;;;;;;;;4951614;29;20231;-61
2023/08/29 05:01:51;;;;;;;5.63;3.72;;;;;;;;;;4918631;29;20344;-60
2023/08/29 05:04:18;;;;;;;7.72;4.30;;;;;;;;;;4952685;28;20239;-60
2023/08/29 05:06:45;;;;;;;7.15;3.67;;;;;;;;;;4954225;28;20696;-58
2023/08/29 05:09:13;;;;;;;8.27;3.97;;;;;;;;;;4956488;29;20251;-60
2023/08/29 05:11:40;;;;;;;6.95;4.32;;;;;;;;;;4956025;29;20739;-60
2023/08/29 05:14:07;;;;;;;6.55;4.00;;;;;;;;;;4955673;28;20673;-60
2023/08/29 05:16:34;;;;;;;6.40;4.10;;;;;;;;;;4943319;29;20207;-59
2023/08/29 05:19:04;;;;;;;8.43;4.32;;;;;;;;;;4960231;28;20215;-60
2023/08/29 05:21:31;;;;;;;8.68;4.80;;;;;;;;;;4957886;28;20719;-59
2023/08/29 05:23:59;;;;;;;7.68;4.90;;;;;;;;;;4958102;28;20207;-61
2023/08/29 05:26:26;;;;;;;11.45;4.75;;;;;;;;;;4941195;29;20235;-60
2023/08/29 05:28:53;;;;;;;8.45;4.63;;;;;;;;;;4938607;29;20232;-60
2023/08/29 05:31:20;;;;;;;7.32;4.85;;;;;;;;;;4942666;29;20211;-61
2023/08/29 05:33:47;;;;;;;8.40;5.32;;;;;;;;;;4958042;28;20215;-60
2023/08/29 05:36:14;;;;;;;8.52;5.72;;;;;;;;;;4957979;28;20214;-60
2023/08/29 05:38:42;;;;;;;8.63;5.50;;;;;;;;;;4957803;28;20219;-60
2023/08/29 05:41:09;;;;;;;8.15;5.57;;;;;;;;;;4957478;28;20601;-60
2023/08/29 05:43:36;;;;;;;8.18;5.60;;;;;;;;;;4957598;28;20211;-61
2023/08/29 05:46:03;;;;;;;10.77;5.60;;;;;;;;;;4957915;28;20210;-60
2023/08/29 05:48:30;;;;;;;8.90;6.03;;;;;;;;;;4957596;28;20266;-57
2023/08/29 05:50:57;;;;;;;8.15;5.95;;;;;;;;;;4951264;28;20575;-59
2023/08/29 05:53:25;;;;;;;10.70;5.68;;;;;;;;;;4938431;29;20219;-59
2023/08/29 05:55:52;;;;;;;9.18;6.10;;;;;;;;;;4938259;29;20307;-59
2023/08/29 05:58:21;;;;;;;8.25;6.25;;;;;;;;;;4938515;29;20208;-60
2023/08/29 06:00:48;;;;;;;10.38;6.95;;;;;;;;;;4938419;29;20210;-59
2023/08/29 06:03:16;;;;;;;9.00;6.07;;;;;;;;;;4938086;29;20204;-58
2023/08/29 06:05:48;;;;;;;9.38;7.45;;;;;;;;;;4938371;29;20346;-58
2023/08/29 06:08:16;;;;;;;11.23;6.30;;;;;;;;;;4937959;29;20697;-58
2023/08/29 06:10:46;;;;;;;11.57;7.10;;;;;;;;;;4953884;29;20231;-59
2023/08/29 06:13:13;;;;;;;8.25;5.85;;;;;;;;;;4957348;28;20215;-57
2023/08/29 06:15:40;;;;;;;14.50;7.45;;;;;;;;;;4957409;28;20202;-59
2023/08/29 06:18:08;;;;;;;10.23;7.32;;;;;;;;;;4956383;28;20203;-58
2023/08/29 06:20:36;;;;;;;14.35;7.45;;;;;;;;;;4956975;28;20218;-56
2023/08/29 06:23:03;;;;;;;14.13;7.82;;;;;;;;;;4939720;28;20219;-59
2023/08/29 06:25:30;;;;;;;12.13;7.20;;;;;;;;;;4938043;29;20208;-56
2023/08/29 06:27:58;;;;;;;11.05;7.43;;;;;;;;;;4943687;28;20231;-61
2023/08/29 06:30:26;;;;;;;12.52;7.97;;;;;;;;;;4943867;28;20216;-60
2023/08/29 06:32:54;;;;;;;12.02;7.68;;;;;;;;;;4937252;28;20215;-57
2023/08/29 06:35:21;;;;;;;12.45;7.35;;;;;;;;;;4946299;28;20211;-59
2023/08/29 06:37:50;;;;;;;12.40;7.28;;;;;;;;;;4936792;28;20208;-60
2023/08/29 06:40:18;;;;;;;13.38;7.68;;;;;;;;;;4938685;28;20287;-60
2023/08/29 06:42:45;;;;;;;10.68;8.18;;;;;;;;;;4937168;28;20287;-60
2023/08/29 06:45:12;;;;;;;11.60;7.38;;;;;;;;;;4946121;28;20607;-60
2023/08/29 06:47:40;;;;;;;10.80;7.25;;;;;;;;;;4947894;28;20212;-60
2023/08/29 06:50:08;;;;;;;11.50;7.88;;;;;;;;;;4941951;28;20263;-60
2023/08/29 06:52:35;;;;;;;12.88;8.25;;;;;;;;;;4936821;28;20240;-60
2023/08/29 06:55:03;;;;;;;14.20;8.57;;;;;;;;;;4944663;28;20235;-60
2023/08/29 06:57:30;;;;;;;11.20;7.63;;;;;;;;;;4936851;28;20208;-60
2023/08/29 06:59:57;;;;;;;10.30;7.18;;;;;;;;;;4937752;28;20211;-60
2023/08/29 07:02:25;;;;;;;15.32;8.25;;;;;;;;;;4936300;28;20203;-60
2023/08/29 07:04:52;;;;;;;12.88;8.43;;;;;;;;;;4943268;28;20227;-60
2023/08/29 07:07:20;;;;;;;13.85;8.43;;;;;;;;;;4938117;28;20208;-60
2023/08/29 07:09:47;;;;;;;9.93;7.63;;;;;;;;;;4937814;28;20231;-60
2023/08/29 07:12:14;;;;;;;14.27;8.20;;;;;;;;;;4936184;28;20662;-60
2023/08/29 07:14:41;;;;;;;13.10;8.18;;;;;;;;;;4940669;28;20215;-60
2023/08/29 07:17:08;;;;;;;14.63;8.00;;;;;;;;;;4940311;28;20270;-60
2023/08/29 07:19:38;;;;;;;12.88;8.30;;;;;;;;;;4936967;28;20290;-60
2023/08/29 07:22:06;;;;;;;15.05;8.55;;;;;;;;;;4936468;28;20196;-60
2023/08/29 07:24:48;;;;;;;12.52;8.45;;;;;;;;;;4941485;28;20195;-60
2023/08/29 07:27:16;;;;;;;12.85;8.30;;;;;;;;;;4939688;28;20208;-60
2023/08/29 07:29:43;;;;;;;13.40;8.65;;;;;;;;;;4951580;28;20250;-60
2023/08/29 07:32:10;;;;;;;11.57;8.57;;;;;;;;;;4941319;28;20204;-58
2023/08/29 07:34:39;;;;;;;13.23;9.27;;;;;;;;;;4938757;28;20585;-60
2023/08/29 07:37:08;;;;;;;13.93;8.70;;;;;;;;;;4941037;28;20201;-60
2023/08/29 07:39:35;;;;;;;11.75;7.97;;;;;;;;;;4937240;28;20208;-59
2023/08/29 07:42:03;;;;;;;13.00;8.52;;;;;;;;;;4940414;28;20723;-59
2023/08/29 07:44:30;;;;;;;11.23;8.70;;;;;;;;;;4948439;28;20204;-59
2023/08/29 07:46:58;;;;;;;13.77;8.13;;;;;;;;;;4955127;28;20203;-60
2023/08/29 07:49:41;;;;;;;10.68;8.75;;;;;;;;;;4938559;28;20696;-60
2023/08/29 07:52:08;;;;;;;16.58;9.43;;;;;;;;;;4935971;28;20196;-60
2023/08/29 07:54:35;;;;;;;10.48;8.43;;;;;;;;;;4936939;28;20224;-61
2023/08/29 07:57:03;;;;;;;17.20;8.98;;;;;;;;;;4943046;28;20208;-60
2023/08/29 07:59:30;;;;;;;11.27;7.45;;;;;;;;;;4936646;28;20285;-56
2023/08/29 08:01:58;;;;;;;11.80;8.18;;;;;;;;;;4938864;28;20210;-60
2023/08/29 08:04:25;;;;;;;15.48;8.35;;;;;;;;;;4955473;28;20210;-56
2023/08/29 08:06:52;;;;;;;13.30;8.35;;;;;;;;;;4955315;28;20218;-57
2023/08/29 08:09:19;;;;;;;16.25;8.55;;;;;;;;;;4955147;28;20233;-57
2023/08/29 08:11:46;;;;;;;13.20;9.52;;;;;;;;;;4953566;29;20208;-54
2023/08/29 08:14:13;;;;;;;13.40;8.90;;;;;;;;;;4948672;28;20688;-61
2023/08/29 08:16:41;;;;;;;11.80;8.88;;;;;;;;;;4936411;28;20204;-61
2023/08/29 08:19:09;;;;;;;15.95;8.40;;;;;;;;;;4935586;28;20203;-60
2023/08/29 08:21:36;;;;;;;13.43;8.82;;;;;;;;;;4943907;28;20208;-61
2023/08/29 08:24:04;;;;;;;12.98;9.02;;;;;;;;;;4951269;28;20207;-61
2023/08/29 08:26:31;;;;;;;14.20;9.45;;;;;;;;;;4950563;28;20203;-60
2023/08/29 08:29:00;;;;;;;15.70;9.32;;;;;;;;;;4943226;28;20223;-60
2023/08/29 08:31:27;;;;;;;15.35;9.48;;;;;;;;;;4934609;28;20211;-61
2023/08/29 08:33:56;;;;;;;12.70;9.18;;;;;;;;;;4949712;28;20668;-60
2023/08/29 08:36:23;;;;;;;11.07;8.23;;;;;;;;;;4936295;28;20211;-61
2023/08/29 08:38:50;;;;;;;12.68;8.93;;;;;;;;;;4943386;28;20597;-58
2023/08/29 08:41:18;;;;;;;12.68;9.05;;;;;;;;;;4946228;28;20235;-58
2023/08/29 08:43:45;;;;;;;16.40;8.95;;;;;;;;;;4955896;28;20208;-58
2023/08/29 08:46:16;;;;;;;16.35;9.38;;;;;;;;;;4941948;28;20243;-57
2023/08/29 08:48:43;;;;;;;16.67;9.55;;;;;;;;;;4961193;28;20764;-58
2023/08/29 08:51:11;;;;;;;12.23;9.13;;;;;;;;;;4939009;28;20211;-59
2023/08/29 08:53:40;;;;;;;15.40;9.05;;;;;;;;;;4949286;28;20207;-61
2023/08/29 08:56:08;;;;;;;14.48;9.18;;;;;;;;;;4942755;28;20208;-65
2023/08/29 08:58:36;;;;;;;15.48;9.77;;;;;;;;;;4961410;28;20669;-62
2023/08/29 09:01:04;;;;;;;15.38;9.15;;;;;;;;;;4939255;28;20216;-61
2023/08/29 09:03:31;;;;;;;19.02;8.93;;;;;;;;;;4948149;28;20211;-61
2023/08/29 09:05:58;;;;;;;13.13;9.80;;;;;;;;;;4953777;28;20259;-62
2023/08/29 09:08:26;;;;;;;13.43;9.27;;;;;;;;;;4948774;28;20203;-62
2023/08/29 09:10:53;;;;;;;18.90;9.80;;;;;;;;;;4939027;28;20208;-61
2023/08/29 09:13:22;;;;;;;14.75;9.07;;;;;;;;;;4946323;28;20555;-61
2023/08/29 09:15:49;;;;;;;16.80;9.32;;;;;;;;;;4944891;28;20204;-61
2023/08/29 09:18:28;;;;;;;14.85;8.82;;;;;;;;;;4945632;28;20208;-61
2023/08/29 09:21:04;;;;;;;14.07;8.75;;;;;;;;;;4938876;28;20200;-61
2023/08/29 09:23:37;;;;;;;12.50;9.15;;;;;;;;;;4947187;28;20712;-61
2023/08/29 09:26:05;;;;;;;11.52;8.43;;;;;;;;;;4957615;28;20207;-59
2023/08/29 09:28:32;;;;;;;12.13;8.63;;;;;;;;;;4956259;28;20204;-61
2023/08/29 09:31:10;;;;;;;14.25;8.93;;;;;;;;;;4938628;28;20231;-61
2023/08/29 09:33:39;;;;;;;12.20;8.48;;;;;;;;;;4947179;28;20679;-61
2023/08/29 09:36:06;;;;;;;11.65;8.88;;;;;;;;;;4944743;28;20211;-61
2023/08/29 09:38:34;;;;;;;14.50;9.20;;;;;;;;;;4946226;28;20207;-60
2023/08/29 09:41:02;;;;;;;19.02;9.00;;;;;;;;;;4938121;28;20243;-61
2023/08/29 09:43:29;;;;;;;11.73;8.73;;;;;;;;;;4976332;28;20278;-61
2023/08/29 09:45:58;;;;;;;15.73;9.02;;;;;;;;;;4946171;28;20243;-61
2023/08/29 09:48:27;;;;;;;11.02;8.25;;;;;;;;;;4945059;28;20283;-61
2023/08/29 09:50:57;;;;;;;16.75;8.45;;;;;;;;;;4954152;28;20676;-61
2023/08/29 09:53:24;;;;;;;15.43;9.18;;;;;;;;;;4973329;28;20203;-61
2023/08/29 09:55:59;;;;;;;15.10;9.18;;;;;;;;;;4945738;28;20662;-61
2023/08/29 09:58:29;;;;;;;14.30;8.65;;;;;;;;;;4975433;28;20278;-61
2023/08/29 10:00:57;;;;;;;11.63;8.25;;;;;;;;;;4938483;28;20208;-61
2023/08/29 10:03:24;;;;;;;16.70;8.35;;;;;;;;;;4974378;28;20239;-61
2023/08/29 10:05:54;;;;;;;14.80;8.82;;;;;;;;;;4945682;28;20658;-61
2023/08/29 10:08:50;;;;;;;16.23;8.70;;;;;;;;;;4973636;28;20242;-58
2023/08/29 10:11:18;;;;;;;12.23;8.50;;;;;;;;;;4933268;28;20223;-57
2023/08/29 10:13:46;;;;;;;13.65;9.15;;;;;;;;;;4945887;28;20649;-59
2023/08/29 10:16:15;;;;;;;15.57;8.02;;;;;;;;;;4944676;28;20231;-58
2023/08/29 10:18:42;;;;;;;11.77;8.90;;;;;;;;;;4944837;28;20203;-58
2023/08/29 10:21:11;;;;;;;16.20;8.00;;;;;;;;;;4952207;28;20204;-59
2023/08/29 10:23:38;;;;;;;12.75;8.38;;;;;;;;;;4974786;28;20195;-57
2023/08/29 10:26:06;;;;;;;13.90;8.90;;;;;;;;;;4944945;28;20260;-57
2023/08/29 10:28:34;;;;;;;18.35;9.07;;;;;;;;;;4944414;28;20214;-55
2023/08/29 10:31:04;;;;;;;15.38;8.32;;;;;;;;;;4956300;28;20212;-54
2023/08/29 10:33:31;;;;;;;18.40;7.95;;;;;;;;;;4955587;29;20254;-55
2023/08/29 10:36:01;;;;;;;12.50;8.15;;;;;;;;;;4956611;28;20210;-54
2023/08/29 10:38:29;;;;;;;11.00;7.38;;;;;;;;;;4956234;28;20302;-54
2023/08/29 10:41:06;;;;;;;13.40;7.90;;;;;;;;;;4986752;28;20235;-57
2023/08/29 10:43:34;;;;;;;14.18;8.05;;;;;;;;;;4956371;28;20199;-51
2023/08/29 10:46:10;;;;;;;12.98;8.05;;;;;;;;;;4955589;29;20212;-57
2023/08/29 10:48:43;;;;;;;11.68;8.52;;;;;;;;;;4956670;28;20214;-53
2023/08/29 10:51:12;;;;;;;17.15;7.07;;;;;;;;;;4956527;28;20191;-56
2023/08/29 10:53:45;;;;;;;14.55;7.72;;;;;;;;;;4956785;28;20641;-57
2023/08/29 10:56:13;;;;;;;11.65;7.07;;;;;;;;;;4956497;29;20669;-54
2023/08/29 10:58:42;;;;;;;12.40;8.25;;;;;;;;;;4956444;28;20200;-52
2023/08/29 11:01:24;;;;;;;11.55;7.60;;;;;;;;;;4956309;28;20199;-54
2023/08/29 11:03:51;;;;;;;11.20;8.02;;;;;;;;;;4955821;28;20207;-53
2023/08/29 11:06:21;;;;;;;14.02;7.50;;;;;;;;;;4956072;28;20564;-57
2023/08/29 11:08:48;;;;;;;14.27;7.75;;;;;;;;;;4956084;28;20199;-57
2023/08/29 11:11:16;;;;;;;11.77;8.27;;;;;;;;;;4955912;28;20207;-58
2023/08/29 11:13:58;;;;;;;10.23;7.50;;;;;;;;;;4956068;28;20207;-50
2023/08/29 11:16:35;;;;;;;11.18;7.88;;;;;;;;;;4956065;28;20208;-56
2023/08/29 11:19:13;;;;;;;14.45;7.72;;;;;;;;;;4955783;28;20738;-52
2023/08/29 11:21:46;;;;;;;12.07;7.82;;;;;;;;;;4955880;29;20695;-56
2023/08/29 11:24:13;;;;;;;11.18;7.32;;;;;;;;;;4985914;28;20222;-50
2023/08/29 11:26:45;;;;;;;12.35;7.95;;;;;;;;;;4955917;28;20200;-55
2023/08/29 11:29:12;;;;;;;12.73;7.55;;;;;;;;;;4955625;28;20234;-54
2023/08/29 11:31:43;;;;;;;12.13;7.85;;;;;;;;;;4955651;28;20653;-54
2023/08/29 11:34:17;;;;;;;12.13;7.07;;;;;;;;;;4956153;28;20220;-54
2023/08/29 11:36:48;;;;;;;13.48;7.50;;;;;;;;;;4955778;28;20202;-51
2023/08/29 11:39:18;;;;;;;10.52;7.18;;;;;;;;;;4941568;28;20216;-59
2023/08/29 11:41:46;;;;;;;14.65;7.10;;;;;;;;;;4936874;28;20228;-59
2023/08/29 11:44:33;;;;;;;9.18;6.30;;;;;;;;;;4945849;28;20223;-60
2023/08/29 11:47:22;;;;;;;12.32;6.63;;;;;;;;;;4940272;28;20669;-58
2023/08/29 11:49:50;;;;;;;16.73;7.05;;;;;;;;;;4935814;28;20228;-57
2023/08/29 11:52:17;;;;;;;9.18;6.80;;;;;;;;;;4936073;28;20212;-56
2023/08/29 11:54:50;;;;;;;10.32;6.95;;;;;;;;;;4949391;28;20291;-58
2023/08/29 11:57:18;;;;;;;11.10;7.20;;;;;;;;;;4934803;28;20649;-58
2023/08/29 11:59:46;;;;;;;10.77;7.05;;;;;;;;;;4941863;28;20212;-58
2023/08/29 12:02:16;;;;;;;10.00;6.72;;;;;;;;;;4934664;28;20208;-58
2023/08/29 12:04:48;;;;;;;11.07;6.68;;;;;;;;;;4934984;28;20283;-57
2023/08/29 12:07:17;;;;;;;8.45;6.32;;;;;;;;;;4934801;28;20216;-57
2023/08/29 12:09:45;;;;;;;10.45;6.97;;;;;;;;;;4939340;28;20226;-59
2023/08/29 12:12:33;;;;;;;8.90;7.05;;;;;;;;;;4940131;28;20212;-59
2023/08/29 12:15:10;;;;;;;10.52;7.03;;;;;;;;;;4935774;28;20614;-60
2023/08/29 12:17:42;;;;;;;10.18;6.50;;;;;;;;;;4941035;28;20204;-60
2023/08/29 12:20:13;;;;;;;7.93;6.78;;;;;;;;;;4944776;28;20680;-60
2023/08/29 12:22:43;;;;;;;8.75;6.15;;;;;;;;;;4947661;28;20592;-59
2023/08/29 12:25:10;;;;;;;10.82;6.65;;;;;;;;;;4954428;28;20296;-59
2023/08/29 12:27:37;;;;;;;13.50;6.90;;;;;;;;;;4940775;28;20669;-59
2023/08/29 12:30:06;;;;;;;10.40;6.60;;;;;;;;;;4951231;28;20242;-59
2023/08/29 12:32:34;;;;;;;13.45;6.78;;;;;;;;;;4951509;28;20219;-59
2023/08/29 12:35:01;;;;;;;12.57;7.30;;;;;;;;;;4970823;28;21080;-60
2023/08/29 12:37:28;;;;;;;20.50;8.60;;;;;;;;;;4954194;28;20695;-59
2023/08/29 12:39:55;;;;;;;13.45;8.18;;;;;;;;;;4957963;28;20235;-57
2023/08/29 12:42:23;;;;;;;9.95;6.18;;;;;;;;;;4967863;28;20234;-59
2023/08/29 12:44:50;;;;;;;9.95;6.20;;;;;;;;;;4952568;28;20639;-60
2023/08/29 12:47:17;;;;;;;12.18;6.32;;;;;;;;;;4959655;28;20708;-59
2023/08/29 12:49:44;;;;;;;8.02;6.07;;;;;;;;;;4947669;28;20291;-60
2023/08/29 12:52:14;;;;;;;10.95;6.63;;;;;;;;;;4938346;28;20267;-61
2023/08/29 12:54:42;;;;;;;10.48;6.18;;;;;;;;;;4938680;28;20230;-56
2023/08/29 12:57:10;;;;;;;8.43;6.22;;;;;;;;;;4948075;28;20226;-60
2023/08/29 12:59:37;;;;;;;10.52;5.43;;;;;;;;;;4945689;28;20227;-58
2023/08/29 13:02:05;;;;;;;8.25;5.63;;;;;;;;;;4942984;28;20724;-59
2023/08/29 13:04:32;;;;;;;11.50;5.80;;;;;;;;;;4937414;28;20222;-58
2023/08/29 13:06:59;;;;;;;10.52;6.05;;;;;;;;;;4942259;28;20208;-60
2023/08/29 13:09:26;;;;;;;8.15;5.82;;;;;;;;;;4955784;28;20752;-60
2023/08/29 13:12:06;;;;;;;7.63;5.50;;;;;;;;;;4946500;28;20578;-59
2023/08/29 13:14:35;;;;;;;9.02;5.97;;;;;;;;;;4950353;28;20615;-59
2023/08/29 13:17:06;;;;;;;7.97;5.45;;;;;;;;;;4943257;28;20649;-59
2023/08/29 13:19:38;;;;;;;10.43;5.57;;;;;;;;;;4952322;28;20235;-57
2023/08/29 13:22:06;;;;;;;12.38;5.22;;;;;;;;;;4955102;28;20246;-59
2023/08/29 13:24:35;;;;;;;9.98;5.70;;;;;;;;;;4961655;28;20230;-59
2023/08/29 13:27:03;;;;;;;8.23;5.80;;;;;;;;;;4952891;28;20231;-57
2023/08/29 13:29:30;;;;;;;9.65;5.72;;;;;;;;;;4953921;28;20230;-59
2023/08/29 13:31:58;;;;;;;9.60;6.20;;;;;;;;;;4951555;28;20605;-58
2023/08/29 13:34:26;;;;;;;10.40;6.70;;;;;;;;;;4956575;28;20219;-60
2023/08/29 13:36:54;;;;;;;14.43;6.72;;;;;;;;;;4940757;28;20235;-58
2023/08/29 13:39:21;;;;;;;8.77;6.10;;;;;;;;;;4945744;28;20582;-58
2023/08/29 13:41:48;;;;;;;10.48;7.32;;;;;;;;;;4955885;28;20654;-60
2023/08/29 13:44:16;;;;;;;10.80;6.57;;;;;;;;;;4948333;28;20220;-58
2023/08/29 13:46:45;;;;;;;7.97;5.88;;;;;;;;;;4955763;28;20688;-52
2023/08/29 13:49:12;;;;;;;10.18;6.88;;;;;;;;;;4957322;28;20224;-58
2023/08/29 13:51:40;;;;;;;8.38;6.80;;;;;;;;;;4956665;28;20579;-58
2023/08/29 13:54:07;;;;;;;9.02;6.13;;;;;;;;;;4956642;29;20724;-53
2023/08/29 13:56:35;;;;;;;8.60;6.05;;;;;;;;;;4956390;28;20268;-57
2023/08/29 13:59:05;;;;;;;8.55;5.40;;;;;;;;;;4955099;29;20274;-57
2023/08/29 14:01:32;;;;;;;13.60;6.13;;;;;;;;;;4955628;29;20235;-58
2023/08/29 14:04:00;;;;;;;11.13;6.45;;;;;;;;;;4956776;28;20223;-57
2023/08/29 14:06:27;;;;;;;12.60;6.60;;;;;;;;;;4956604;29;20232;-58
2023/08/29 14:08:54;;;;;;;8.20;6.78;;;;;;;;;;4956184;28;20227;-57
2023/08/29 14:11:21;;;;;;;8.40;6.10;;;;;;;;;;4956885;28;20231;-57
2023/08/29 14:13:48;;;;;;;13.80;6.57;;;;;;;;;;4955806;28;20760;-57
2023/08/29 14:16:16;;;;;;;9.45;6.28;;;;;;;;;;4956773;29;20231;-57
2023/08/29 14:18:45;;;;;;;9.93;6.22;;;;;;;;;;4956153;28;20286;-58
2023/08/29 14:21:13;;;;;;;9.05;6.10;;;;;;;;;;4956856;29;20223;-58
2023/08/29 14:23:40;;;;;;;11.57;7.20;;;;;;;;;;4955917;28;20591;-58
2023/08/29 14:26:10;;;;;;;8.20;6.55;;;;;;;;;;4956265;28;20239;-55
2023/08/29 14:28:38;;;;;;;9.43;6.72;;;;;;;;;;4955263;28;20262;-55
2023/08/29 14:31:05;;;;;;;11.05;6.35;;;;;;;;;;4956323;28;20232;-57
2023/08/29 14:33:32;;;;;;;11.23;6.28;;;;;;;;;;4955634;28;20602;-56
2023/08/29 14:36:03;;;;;;;12.50;6.97;;;;;;;;;;4956064;28;20227;-58
2023/08/29 14:38:31;;;;;;;9.05;6.57;;;;;;;;;;4955086;28;20569;-59
2023/08/29 14:41:11;;;;;;;10.80;6.90;;;;;;;;;;4955743;28;20254;-59
2023/08/29 14:43:38;;;;;;;7.95;5.80;;;;;;;;;;4955074;28;20231;-59
2023/08/29 14:46:06;;;;;;;9.27;6.93;;;;;;;;;;4956081;28;20227;-58